createdAt,value
2018-07-11T00:01:18.698Z,20.41
2018-07-11T00:03:49.765Z,20.30
2018-07-11T00:06:18.941Z,20.35
2018-07-11T00:08:46.928Z,20.43
2018-07-11T00:11:15.166Z,20.48
2018-07-11T00:13:44.201Z,20.49
2018-07-11T00:16:12.968Z,20.39
2018-07-11T00:18:40.868Z,20.46
2018-07-11T00:21:08.874Z,20.48
2018-07-11T00:23:37.062Z,20.47
2018-07-11T00:26:06.285Z,20.51
2018-07-11T00:28:34.292Z,20.68
2018-07-11T00:31:02.672Z,20.74
2018-07-11T00:33:31.041Z,20.75
2018-07-11T00:35:59.029Z,20.82
2018-07-11T00:38:27.054Z,20.78
2018-07-11T00:40:55.061Z,20.65
2018-07-11T00:43:23.098Z,20.32
2018-07-11T00:45:51.633Z,20.15
2018-07-11T00:48:19.629Z,20.09
2018-07-11T00:50:47.637Z,19.98
2018-07-11T00:53:15.649Z,19.93
2018-07-11T00:55:45.237Z,19.88
2018-07-11T00:58:24.729Z,19.79
2018-07-11T01:01:05.121Z,19.86
2018-07-11T01:03:35.835Z,19.84
2018-07-11T01:06:03.965Z,19.76
2018-07-11T01:08:34.539Z,19.82
2018-07-11T01:11:07.059Z,19.78
2018-07-11T01:13:35.089Z,19.91
2018-07-11T01:16:03.050Z,19.91
2018-07-11T01:18:31.103Z,20.01
2018-07-11T01:20:58.942Z,20.12
2018-07-11T01:23:26.845Z,20.13
2018-07-11T01:25:54.730Z,19.98
2018-07-11T01:28:22.578Z,19.94
2018-07-11T01:30:50.520Z,19.96
2018-07-11T01:33:18.349Z,19.74
2018-07-11T01:35:46.319Z,19.89
2018-07-11T01:38:14.182Z,20.12
2018-07-11T01:40:42.016Z,20.13
2018-07-11T01:43:09.971Z,20.22
2018-07-11T01:45:37.854Z,20.21
2018-07-11T01:48:05.933Z,20.27
2018-07-11T01:50:33.901Z,20.41
2018-07-11T01:53:01.767Z,20.02
2018-07-11T01:55:29.759Z,20.07
2018-07-11T01:57:59.981Z,20.12
2018-07-11T02:00:29.170Z,20.29
2018-07-11T02:02:57.234Z,20.51
2018-07-11T02:05:26.718Z,20.36
2018-07-11T02:07:55.103Z,20.27
2018-07-11T02:10:23.421Z,20.36
2018-07-11T02:12:51.715Z,20.28
2018-07-11T02:15:19.766Z,20.48
2018-07-11T02:17:47.778Z,20.17
2018-07-11T02:20:17.145Z,20.72
2018-07-11T02:22:46.541Z,20.92
2018-07-11T02:25:15.442Z,21.11
2018-07-11T02:27:43.472Z,21.08
2018-07-11T02:30:11.403Z,21.01
2018-07-11T02:32:39.761Z,20.86
2018-07-11T02:35:07.706Z,20.97
2018-07-11T02:37:35.713Z,21.19
2018-07-11T02:40:03.631Z,21.29
2018-07-11T02:42:31.551Z,21.11
2018-07-11T02:44:59.538Z,21.01
2018-07-11T02:47:33.095Z,21.21
2018-07-11T02:50:01.191Z,21.33
2018-07-11T02:52:29.085Z,21.43
2018-07-11T02:54:56.999Z,21.54
2018-07-11T02:57:25.117Z,21.65
2018-07-11T02:59:53.080Z,21.65
2018-07-11T03:02:21.094Z,21.72
2018-07-11T03:04:49.048Z,21.96
2018-07-11T03:07:16.973Z,22.34
2018-07-11T03:09:44.899Z,22.28
2018-07-11T03:12:12.759Z,22.15
2018-07-11T03:14:43.370Z,22.11
2018-07-11T03:17:11.258Z,22.06
2018-07-11T03:19:39.178Z,22.01
2018-07-11T03:22:07.074Z,22.01
2018-07-11T03:24:35.022Z,21.96
2018-07-11T03:27:03.023Z,22.00
2018-07-11T03:29:30.921Z,22.07
2018-07-11T03:31:58.870Z,21.98
2018-07-11T03:34:26.837Z,21.85
2018-07-11T03:36:54.809Z,22.00
2018-07-11T03:39:22.797Z,21.58
2018-07-11T03:41:50.761Z,21.91
2018-07-11T03:44:18.722Z,21.86
2018-07-11T03:46:46.647Z,21.94
2018-07-11T03:49:14.615Z,21.65
2018-07-11T03:51:42.514Z,21.60
2018-07-11T03:54:10.367Z,22.02
2018-07-11T03:56:38.250Z,22.02
2018-07-11T03:59:06.174Z,22.23
2018-07-11T04:01:34.093Z,22.75
2018-07-11T04:04:01.987Z,22.81
2018-07-11T04:06:29.905Z,23.00
2018-07-11T04:08:57.762Z,23.54
2018-07-11T04:11:25.614Z,23.73
2018-07-11T04:13:53.483Z,24.27
2018-07-11T04:16:21.367Z,24.88
2018-07-11T04:18:49.224Z,26.92
2018-07-11T04:21:17.070Z,30.15
2018-07-11T04:23:44.988Z,30.30
2018-07-11T04:26:13.050Z,31.53
2018-07-11T04:28:41.398Z,31.43
2018-07-11T04:31:09.503Z,31.61
2018-07-11T04:33:37.494Z,33.54
2018-07-11T04:36:05.390Z,32.98
2018-07-11T04:38:33.365Z,34.57
2018-07-11T04:41:01.234Z,34.06
2018-07-11T04:43:29.190Z,35.84
2018-07-11T04:45:57.169Z,36.77
2018-07-11T04:48:25.167Z,36.88
2018-07-11T04:50:53.185Z,35.01
2018-07-11T04:53:23.789Z,34.59
2018-07-11T04:55:55.399Z,35.35
2018-07-11T04:58:23.237Z,34.21
2018-07-11T05:00:51.066Z,34.19
2018-07-11T05:03:18.936Z,34.38
2018-07-11T05:05:46.831Z,33.40
2018-07-11T05:08:14.647Z,32.80
2018-07-11T05:10:42.488Z,32.11
2018-07-11T05:13:10.339Z,33.34
2018-07-11T05:15:38.238Z,33.71
2018-07-11T05:18:06.238Z,34.82
2018-07-11T05:20:34.367Z,36.15
2018-07-11T05:23:02.546Z,37.08
2018-07-11T05:25:30.397Z,36.28
2018-07-11T05:27:58.606Z,35.56
2018-07-11T05:30:26.525Z,35.33
2018-07-11T05:32:54.369Z,35.27
2018-07-11T05:35:22.264Z,36.24
2018-07-11T05:37:50.149Z,36.78
2018-07-11T05:40:18.083Z,37.77
2018-07-11T05:42:45.999Z,37.33
2018-07-11T05:45:13.859Z,37.07
2018-07-11T05:47:41.733Z,35.14
2018-07-11T05:50:09.689Z,34.25
2018-07-11T05:52:37.534Z,37.22
2018-07-11T05:55:05.364Z,35.24
2018-07-11T05:57:33.254Z,34.71
2018-07-11T06:00:01.098Z,34.30
2018-07-11T06:02:28.989Z,32.13
2018-07-11T06:04:56.870Z,31.04
2018-07-11T06:07:24.753Z,28.96
2018-07-11T06:09:52.615Z,28.53
2018-07-11T06:12:20.484Z,28.51
2018-07-11T06:14:48.362Z,28.90
2018-07-11T06:17:16.205Z,28.37
2018-07-11T06:19:44.112Z,27.81
2018-07-11T06:22:11.990Z,26.80
2018-07-11T06:24:39.890Z,26.58
2018-07-11T06:27:07.759Z,27.31
2018-07-11T06:29:35.641Z,29.24
2018-07-11T06:32:03.585Z,29.05
2018-07-11T06:34:31.448Z,28.49
2018-07-11T06:36:59.651Z,28.38
2018-07-11T06:39:28.001Z,28.84
2018-07-11T06:41:56.202Z,31.88
2018-07-11T06:44:24.066Z,32.36
2018-07-11T06:46:51.971Z,32.35
2018-07-11T06:49:19.838Z,33.45
2018-07-11T06:51:47.729Z,33.55
2018-07-11T06:54:15.955Z,31.90
2018-07-11T06:56:43.797Z,33.48
2018-07-11T06:59:11.680Z,32.55
2018-07-11T07:01:39.619Z,33.07
2018-07-11T07:04:07.575Z,34.71
2018-07-11T07:06:35.450Z,33.80
2018-07-11T07:09:04.579Z,32.67
2018-07-11T07:11:32.867Z,31.29
2018-07-11T07:14:00.729Z,29.15
2018-07-11T07:16:28.619Z,27.67
2018-07-11T07:18:56.509Z,27.71
2018-07-11T07:21:24.364Z,27.02
2018-07-11T07:23:52.242Z,27.19
2018-07-11T07:26:20.093Z,27.50
2018-07-11T07:28:48.062Z,29.12
2018-07-11T07:31:15.890Z,30.40
2018-07-11T07:33:43.732Z,29.16
2018-07-11T07:36:11.589Z,27.67
2018-07-11T07:38:42.146Z,27.80
2018-07-11T07:41:10.539Z,28.07
2018-07-11T07:43:39.172Z,27.78
2018-07-11T07:46:07.396Z,27.58
2018-07-11T07:48:35.445Z,28.37
2018-07-11T07:51:03.515Z,29.31
2018-07-11T07:53:31.622Z,29.85
2018-07-11T07:55:59.643Z,29.27
2018-07-11T07:58:27.726Z,27.13
2018-07-11T08:00:55.643Z,27.70
2018-07-11T08:03:23.670Z,28.07
2018-07-11T08:05:51.526Z,27.89
2018-07-11T08:08:19.455Z,28.27
2018-07-11T08:10:47.325Z,28.82
2018-07-11T08:13:15.254Z,28.82
2018-07-11T08:15:43.119Z,29.88
2018-07-11T08:18:10.996Z,31.85
2018-07-11T08:20:38.908Z,32.30
2018-07-11T08:23:19.035Z,33.17
2018-07-11T08:25:59.165Z,32.81
2018-07-11T08:30:40.050Z,33.60
2018-07-11T08:33:24.957Z,34.80
2018-07-11T08:36:04.018Z,34.50
2018-07-11T08:40:54.002Z,34.78
2018-07-11T08:45:33.699Z,33.53
2018-07-11T08:48:30.846Z,34.04
2018-07-11T08:51:29.513Z,32.29
2018-07-11T08:54:11.294Z,31.40
2018-07-11T08:56:50.218Z,31.55
2018-07-11T08:59:32.850Z,32.48
2018-07-11T09:02:11.655Z,31.93
2018-07-11T09:06:58.583Z,32.52
2018-07-11T09:11:42.342Z,31.80
2018-07-11T09:14:25.819Z,31.97
2018-07-11T09:17:44.297Z,32.39
2018-07-11T09:21:02.317Z,32.70
2018-07-11T09:24:11.137Z,33.73
2018-07-11T09:26:38.914Z,32.13
2018-07-11T09:29:07.071Z,31.76
2018-07-11T09:31:35.043Z,30.50
2018-07-11T09:34:02.961Z,31.77
2018-07-11T09:36:30.869Z,32.69
2018-07-11T09:38:58.765Z,32.87
2018-07-11T09:41:26.670Z,32.52
2018-07-11T09:43:54.700Z,32.31
2018-07-11T09:46:22.741Z,31.38
2018-07-11T09:48:51.069Z,31.07
2018-07-11T09:51:18.998Z,31.26
2018-07-11T09:53:46.861Z,31.79
2018-07-11T09:56:15.185Z,31.23
2018-07-11T09:58:43.219Z,31.08
2018-07-11T10:01:16.702Z,32.19
2018-07-11T10:03:44.754Z,32.41
2018-07-11T10:06:12.772Z,32.43
2018-07-11T10:08:40.673Z,32.14
2018-07-11T10:11:08.495Z,32.62
2018-07-11T10:13:36.665Z,30.98
2018-07-11T10:16:04.632Z,30.82
2018-07-11T10:18:32.591Z,32.53
2018-07-11T10:21:00.545Z,31.87
2018-07-11T10:23:28.587Z,30.84
2018-07-11T10:25:57.254Z,31.79
2018-07-11T10:28:25.222Z,31.13
2018-07-11T10:30:53.121Z,32.03
2018-07-11T10:33:20.947Z,30.91
2018-07-11T10:35:48.903Z,30.66
2018-07-11T10:38:16.774Z,31.18
2018-07-11T10:40:44.629Z,32.51
2018-07-11T10:43:12.612Z,32.56
2018-07-11T10:45:40.596Z,32.81
2018-07-11T10:48:08.451Z,30.86
2018-07-11T10:50:36.475Z,30.72
2018-07-11T10:53:04.378Z,30.72
2018-07-11T10:55:32.262Z,30.92
2018-07-11T10:58:00.197Z,32.36
2018-07-11T11:00:36.660Z,33.75
2018-07-11T11:02:57.759Z,33.17
2018-07-11T11:05:25.655Z,31.97
2018-07-11T11:07:53.625Z,32.52
2018-07-11T11:10:21.574Z,31.29
2018-07-11T11:12:49.509Z,30.44
2018-07-11T11:15:17.507Z,31.96
2018-07-11T11:17:45.370Z,31.97
2018-07-11T11:20:13.263Z,32.05
2018-07-11T11:22:41.129Z,31.63
2018-07-11T11:25:09.620Z,31.29
2018-07-11T11:27:37.520Z,31.71
2018-07-11T11:30:05.433Z,32.03
2018-07-11T11:32:33.353Z,32.35
2018-07-11T11:35:01.435Z,32.99
2018-07-11T11:37:29.510Z,32.87
2018-07-11T11:39:57.337Z,32.70
2018-07-11T11:42:25.639Z,33.21
2018-07-11T11:44:54.173Z,32.33
2018-07-11T11:47:25.034Z,30.33
2018-07-11T11:49:53.526Z,31.57
2018-07-11T11:52:21.507Z,30.72
2018-07-11T11:54:49.435Z,31.61
2018-07-11T11:57:17.294Z,32.70
2018-07-11T11:59:45.183Z,32.75
2018-07-11T12:02:13.055Z,32.60
2018-07-11T12:04:40.978Z,32.17
2018-07-11T12:07:08.850Z,30.22
2018-07-11T12:09:36.854Z,30.28
2018-07-11T12:12:04.733Z,31.81
2018-07-11T12:14:33.845Z,31.95
2018-07-11T12:17:01.746Z,32.52
2018-07-11T12:19:29.754Z,32.90
2018-07-11T12:21:57.697Z,32.29
2018-07-11T12:24:25.734Z,31.77
2018-07-11T12:26:53.655Z,32.52
2018-07-11T12:29:21.581Z,32.90
2018-07-11T12:31:49.470Z,32.62
2018-07-11T12:34:17.402Z,32.36
2018-07-11T12:36:45.391Z,32.21
2018-07-11T12:39:13.463Z,31.47
2018-07-11T12:41:41.555Z,32.71
2018-07-11T12:44:09.558Z,32.59
2018-07-11T12:46:37.590Z,32.80
2018-07-11T12:49:06.336Z,33.27
2018-07-11T12:51:35.223Z,32.75
2018-07-11T12:54:04.011Z,32.20
2018-07-11T12:56:31.980Z,32.87
2018-07-11T12:58:59.940Z,33.24
2018-07-11T13:01:28.231Z,33.19
2018-07-11T13:03:57.739Z,32.76
2018-07-11T13:06:27.450Z,32.98
2018-07-11T13:08:55.539Z,32.70
2018-07-11T13:11:23.491Z,31.77
2018-07-11T13:13:51.961Z,32.88
2018-07-11T13:16:19.917Z,32.59
2018-07-11T13:18:48.158Z,31.66
2018-07-11T13:21:16.031Z,32.79
2018-07-11T13:23:43.933Z,33.42
2018-07-11T13:26:11.901Z,33.44
2018-07-11T13:28:39.882Z,32.79
2018-07-11T13:31:08.191Z,31.98
2018-07-11T13:33:36.465Z,33.25
2018-07-11T13:36:04.362Z,33.19
2018-07-11T13:38:32.403Z,33.94
2018-07-11T13:41:00.314Z,33.99
2018-07-11T13:43:28.247Z,33.81
2018-07-11T13:45:56.302Z,33.95
2018-07-11T13:48:24.213Z,33.69
2018-07-11T13:50:52.057Z,32.61
2018-07-11T13:53:20.021Z,32.86
2018-07-11T13:55:48.044Z,33.77
2018-07-11T13:58:16.051Z,33.26
2018-07-11T14:00:44.004Z,33.76
2018-07-11T14:03:11.894Z,34.10
2018-07-11T14:05:39.834Z,32.15
2018-07-11T14:08:08.295Z,33.31
2018-07-11T14:10:36.176Z,32.17
2018-07-11T14:13:04.158Z,31.55
2018-07-11T14:15:32.102Z,32.04
2018-07-11T14:18:00.113Z,31.95
2018-07-11T14:20:28.132Z,32.16
2018-07-11T14:23:03.417Z,32.75
2018-07-11T14:25:32.764Z,32.14
2018-07-11T14:28:00.804Z,31.77
2018-07-11T14:30:29.173Z,32.72
2018-07-11T14:33:02.626Z,32.45
2018-07-11T14:35:30.548Z,33.12
2018-07-11T14:37:58.838Z,32.45
2018-07-11T14:40:26.741Z,33.10
2018-07-11T14:42:54.951Z,32.67
2018-07-11T14:45:22.826Z,32.41
2018-07-11T14:47:56.590Z,32.54
2018-07-11T14:50:24.870Z,32.90
2018-07-11T14:52:53.138Z,32.00
2018-07-11T14:55:21.169Z,31.99
2018-07-11T14:57:49.717Z,31.46
2018-07-11T15:00:17.554Z,31.79
2018-07-11T15:02:46.282Z,31.87
2018-07-11T15:05:14.182Z,32.30
2018-07-11T15:07:42.205Z,32.25
2018-07-11T15:10:10.093Z,32.13
2018-07-11T15:12:38.490Z,31.98
2018-07-11T15:15:06.358Z,31.87
2018-07-11T15:17:34.402Z,31.67
2018-07-11T15:20:02.361Z,31.88
2018-07-11T15:22:30.201Z,32.13
2018-07-11T15:24:58.709Z,32.17
2018-07-11T15:27:26.642Z,32.73
2018-07-11T15:29:56.174Z,31.53
2018-07-11T15:32:24.190Z,31.89
2018-07-11T15:34:52.649Z,32.01
2018-07-11T15:37:21.008Z,32.23
2018-07-11T15:39:49.286Z,31.86
2018-07-11T15:42:17.343Z,32.21
2018-07-11T15:44:45.399Z,32.41
2018-07-11T15:47:13.702Z,32.93
2018-07-11T15:49:41.642Z,33.12
2018-07-11T15:52:10.119Z,32.87
2018-07-11T15:54:38.537Z,32.42
2018-07-11T15:57:06.694Z,32.32
2018-07-11T15:59:40.374Z,31.94
2018-07-11T16:02:08.278Z,31.66
2018-07-11T16:04:39.693Z,31.84
2018-07-11T16:07:08.698Z,31.74
2018-07-11T16:10:09.326Z,31.73
2018-07-11T16:12:37.266Z,32.06
2018-07-11T16:15:05.263Z,31.56
2018-07-11T16:17:33.140Z,31.26
2018-07-11T16:20:01.091Z,30.95
2018-07-11T16:22:29.023Z,31.15
2018-07-11T16:24:57.077Z,31.31
2018-07-11T16:27:25.001Z,31.21
2018-07-11T16:29:52.910Z,30.44
2018-07-11T16:32:20.805Z,30.67
2018-07-11T16:34:48.711Z,30.29
2018-07-11T16:37:16.578Z,30.59
2018-07-11T16:39:44.532Z,30.84
2018-07-11T16:42:12.484Z,30.66
2018-07-11T16:44:40.484Z,30.68
2018-07-11T16:47:08.354Z,30.30
2018-07-11T16:49:38.270Z,30.22
2018-07-11T16:52:06.320Z,30.12
2018-07-11T16:54:34.499Z,29.73
2018-07-11T16:57:03.802Z,29.98
2018-07-11T16:59:39.485Z,29.76
2018-07-11T17:02:08.705Z,29.38
2018-07-11T17:04:40.197Z,28.96
2018-07-11T17:07:11.069Z,28.63
2018-07-11T17:09:39.621Z,28.82
2018-07-11T17:12:11.002Z,28.67
2018-07-11T17:14:39.029Z,28.82
2018-07-11T17:17:07.071Z,28.92
2018-07-11T17:20:12.258Z,28.50
2018-07-11T17:22:52.751Z,28.34
2018-07-11T17:25:21.295Z,28.32
2018-07-11T17:27:57.062Z,28.32
2018-07-11T17:30:25.142Z,28.07
2018-07-11T17:32:54.238Z,27.97
2018-07-11T17:35:22.302Z,27.83
2018-07-11T17:37:50.753Z,27.72
2018-07-11T17:40:23.358Z,27.73
2018-07-11T17:42:51.367Z,27.80
2018-07-11T17:45:20.106Z,27.87
2018-07-11T17:48:18.708Z,27.84
2018-07-11T17:50:46.740Z,27.41
2018-07-11T17:53:20.087Z,27.19
2018-07-11T17:56:07.402Z,27.29
2018-07-11T17:58:56.773Z,27.06
2018-07-11T18:01:35.903Z,26.86
2018-07-11T18:04:15.516Z,26.71
2018-07-11T18:07:23.012Z,26.65
2018-07-11T18:09:58.507Z,26.53
2018-07-11T18:12:33.536Z,26.37
2018-07-11T18:15:36.766Z,26.24
2018-07-11T18:18:16.545Z,26.13
2018-07-11T18:20:55.563Z,26.02
2018-07-11T18:23:39.602Z,26.02
2018-07-11T18:26:15.945Z,25.99
2018-07-11T18:28:55.548Z,25.98
2018-07-11T18:31:32.310Z,26.05
2018-07-11T18:34:15.609Z,25.82
2018-07-11T18:37:51.628Z,25.58
2018-07-11T18:40:31.933Z,25.33
2018-07-11T18:45:15.689Z,25.21
2018-07-11T18:47:59.905Z,25.06
2018-07-11T18:53:37.472Z,24.72
2018-07-11T18:56:25.038Z,24.51
2018-07-11T18:58:58.027Z,24.57
2018-07-11T19:03:42.893Z,24.61
2018-07-11T19:06:17.977Z,24.48
2018-07-11T19:09:54.800Z,24.46
2018-07-11T19:12:36.156Z,24.46
2018-07-11T19:15:08.633Z,24.47
2018-07-11T19:19:49.745Z,24.46
2018-07-11T19:22:26.060Z,24.47
2018-07-11T19:25:06.546Z,24.32
2018-07-11T19:27:45.245Z,24.35
2018-07-11T19:30:18.028Z,24.43
2018-07-11T19:32:59.560Z,24.44
2018-07-11T19:37:42.362Z,24.48
2018-07-11T19:40:48.214Z,24.27
2018-07-11T19:45:39.861Z,24.24
2018-07-11T19:48:30.929Z,24.03
2018-07-11T19:51:08.018Z,24.04
2018-07-11T19:55:49.633Z,24.13
2018-07-11T19:58:17.532Z,24.14
2018-07-11T20:00:45.522Z,24.12
2018-07-11T20:03:13.502Z,24.06
2018-07-11T20:05:41.778Z,24.08
2018-07-11T20:08:09.642Z,24.09
2018-07-11T20:10:37.646Z,24.14
2018-07-11T20:13:06.210Z,24.20
2018-07-11T20:15:34.573Z,24.16
2018-07-11T20:18:02.475Z,24.24
2018-07-11T20:20:30.389Z,24.30
2018-07-11T20:22:58.221Z,24.30
2018-07-11T20:25:26.165Z,24.30
2018-07-11T20:27:54.122Z,24.30
2018-07-11T20:30:22.205Z,24.36
2018-07-11T20:32:50.031Z,24.40
2018-07-11T20:35:17.898Z,24.42
2018-07-11T20:37:46.222Z,24.44
2018-07-11T20:40:14.089Z,24.49
2018-07-11T20:42:42.090Z,24.40
2018-07-11T20:45:10.081Z,24.32
2018-07-11T20:47:38.042Z,24.35
2018-07-11T20:50:05.985Z,24.38
2018-07-11T20:52:33.864Z,24.34
2018-07-11T20:55:01.696Z,24.33
2018-07-11T20:57:29.562Z,24.28
2018-07-11T21:00:08.517Z,24.24
2018-07-11T21:03:20.615Z,24.27
2018-07-11T21:05:58.986Z,24.18
2018-07-11T21:09:40.535Z,24.17
2018-07-11T21:14:25.128Z,24.23
2018-07-11T21:17:04.118Z,24.25
2018-07-11T21:19:32.039Z,24.30
2018-07-11T21:21:59.858Z,24.25
2018-07-11T21:24:27.703Z,24.07
2018-07-11T21:26:55.546Z,24.08
2018-07-11T21:29:23.390Z,23.80
2018-07-11T21:31:51.214Z,23.92
2018-07-11T21:34:19.062Z,24.00
2018-07-11T21:36:46.889Z,23.84
2018-07-11T21:39:14.742Z,24.02
2018-07-11T21:41:42.615Z,24.13
2018-07-11T21:44:10.468Z,24.08
2018-07-11T21:46:38.446Z,24.09
2018-07-11T21:49:06.441Z,24.20
2018-07-11T21:51:34.265Z,23.98
2018-07-11T21:54:02.118Z,24.04
2018-07-11T21:56:29.966Z,24.14
2018-07-11T21:58:57.813Z,24.02
2018-07-11T22:01:25.701Z,24.01
2018-07-11T22:03:53.521Z,24.12
2018-07-11T22:06:21.386Z,24.17
2018-07-11T22:08:49.238Z,24.05
2018-07-11T22:11:17.156Z,23.81
2018-07-11T22:13:45.031Z,23.76
2018-07-11T22:16:12.948Z,23.64
2018-07-11T22:18:45.078Z,23.71
2018-07-11T22:21:12.845Z,23.76
2018-07-11T22:23:39.573Z,23.67
2018-07-11T22:26:06.061Z,23.73
2018-07-11T22:28:32.588Z,23.74
2018-07-11T22:30:59.073Z,23.79
2018-07-11T22:33:25.565Z,23.88
2018-07-11T22:35:52.061Z,23.80
2018-07-11T22:38:18.546Z,23.82
2018-07-11T22:40:45.459Z,23.75
2018-07-11T22:43:11.953Z,23.76
2018-07-11T22:45:38.451Z,23.82
2018-07-11T22:48:04.949Z,23.85
2018-07-11T22:50:31.439Z,23.74
2018-07-11T22:52:57.922Z,23.70
2018-07-11T22:55:24.518Z,23.55
2018-07-11T22:57:51.260Z,23.68
2018-07-11T23:00:17.780Z,23.72
2018-07-11T23:02:44.373Z,23.56
2018-07-11T23:05:10.850Z,23.27
2018-07-11T23:07:37.331Z,23.31
2018-07-11T23:10:03.803Z,23.36
2018-07-11T23:12:30.273Z,23.27
2018-07-11T23:14:56.733Z,23.34
2018-07-11T23:17:23.210Z,23.33
2018-07-11T23:19:49.686Z,23.33
2018-07-11T23:22:16.159Z,23.31
2018-07-11T23:24:42.654Z,23.14
2018-07-11T23:27:09.134Z,23.11
2018-07-11T23:29:35.614Z,23.13
2018-07-11T23:32:02.383Z,23.05
2018-07-11T23:34:28.878Z,22.98
2018-07-11T23:36:55.365Z,23.08
2018-07-11T23:39:21.837Z,23.14
2018-07-11T23:41:48.321Z,23.18
2018-07-11T23:44:14.814Z,23.25
2018-07-11T23:46:41.311Z,23.03
2018-07-11T23:49:07.794Z,23.06
2018-07-11T23:51:34.288Z,23.03
2018-07-11T23:54:00.781Z,22.92
2018-07-11T23:56:27.276Z,23.06
2018-07-11T23:58:53.762Z,22.94
